CDT,Max TemperatureF,Mean TemperatureF,Min TemperatureF,Max Dew PointF,MeanDew PointF,Min DewpointF,Max Humidity, Mean Humidity, Min Humidity, Max Sea Level PressureIn, Mean Sea Level PressureIn, Min Sea Level PressureIn, Max VisibilityMiles, Mean VisibilityMiles, Min VisibilityMiles, Max Wind SpeedMPH, Mean Wind SpeedMPH, Max Gust SpeedMPH,PrecipitationIn, CloudCover, Events, WindDirDegrees
2012-10-1,80,68,57,63,57,52,100,73,37,29.99,29.93,29.90,10,10,10,16,4,,0.00,0,Rain,321
2012-10-2,77,66,55,57,51,46,94,62,36,30.07,30.01,29.97,10,10,10,17,7,,0.00,0,,328
2012-10-3,84,68,53,55,52,48,82,57,35,30.02,29.98,29.93,10,10,9,16,6,,0.00,0,,150
2012-10-4,91,78,64,70,63,55,100,70,38,30.14,30.05,30.00,10,10,4,15,8,,0.00,0,,156
2012-10-5,89,72,55,64,58,48,88,66,38,30.14,30.07,29.97,10,9,3,12,7,,0.00,2,,3
2012-10-6,64,55,46,57,50,45,100,89,72,30.21,30.12,30.05,10,8,2,15,11,,0.00,7,Rain,13
2012-10-7,50,46,42,45,38,36,100,77,62,30.28,30.23,30.17,10,10,7,15,11,,0.00,8,Rain,22
2012-10-8,69,54,39,50,41,34,87,62,46,30.25,30.16,30.05,10,10,10,10,4,,0.00,4,,89
2012-10-9,84,70,55,61,58,50,88,66,42,30.04,29.98,29.91,10,10,10,23,12,,0.00,3,,186
2012-10-10,84,73,62,68,64,61,100,78,48,30.16,30.09,30.00,10,9,3,10,4,,0.00,4,,86
2012-10-11,87,76,64,72,68,63,100,79,46,30.14,30.09,30.05,10,8,3,15,7,,0.00,2,,145
2012-10-12,86,78,69,72,66,61,94,74,43,30.19,30.12,30.06,10,10,6,20,10,,0.00,4,,143
2012-10-13,82,78,73,70,69,66,88,76,61,30.07,29.98,29.88,10,10,10,20,12,,0.00,5,Rain,163
2012-10-14,82,72,62,66,54,45,100,62,30,30.17,30.09,29.95,10,10,2,13,7,,0.00,1,Rain,351
2012-10-15,77,64,51,52,48,43,88,57,32,30.17,30.10,30.01,10,10,2,10,4,,0.00,0,,137
2012-10-16,75,68,62,66,58,52,94,71,57,30.01,29.87,29.76,10,10,10,16,7,,0.00,2,,170
2012-10-17,89,78,64,66,57,45,100,62,22,29.81,29.73,29.69,10,10,10,18,11,,0.00,1,,232
2012-10-18,75,64,53,48,35,25,77,39,16,30.04,29.96,29.81,10,10,10,13,6,,0.00,0,,52
2012-10-19,80,64,48,41,35,30,71,39,16,30.08,30.01,29.93,10,10,10,12,4,,0.00,0,,150
2012-10-20,87,72,57,66,57,36,88,61,39,29.93,29.86,29.78,10,10,10,21,8,,0.00,1,,163
2012-10-21,89,79,69,70,67,63,100,74,43,29.92,29.87,29.83,10,10,5,17,9,,0.00,1,,165
2012-10-22,86,75,64,70,63,55,100,70,35,30.03,29.94,29.90,10,10,10,14,9,,0.00,2,,145
2012-10-23,82,76,69,70,66,64,100,78,54,29.99,29.95,29.92,10,10,10,18,10,,0.00,3,,155
2012-10-24,82,74,66,66,64,55,100,70,50,29.98,29.92,29.85,10,10,10,18,11,,0.00,3,,159
2012-10-25,84,70,57,64,57,39,88,64,51,30.10,29.92,29.81,10,10,7,23,12,,0.00,4,,153
2012-10-26,57,50,44,39,34,27,71,52,41,30.32,30.21,30.10,10,10,10,20,14,30,0.00,7,Rain,357
2012-10-27,59,49,39,27,25,23,61,42,27,30.34,30.25,30.16,10,10,10,15,9,,0.00,7,,1
2012-10-28,64,48,33,28,25,23,75,41,22,30.29,30.23,30.17,10,10,4,6,3,,0.00,0,,64
2012-10-29,69,53,37,36,31,27,70,42,27,30.28,30.20,30.11,10,10,6,9,5,,0.00,0,,129
2012-10-30,78,62,46,52,44,36,72,55,36,30.12,30.05,29.98,10,10,8,13,5,,0.00,0,,154
2012-10-31,82,66,50,55,49,45,94,71,28,30.11,30.05,30.02,10,10,8,9,4,,0.00,0,,262